createdAt,value
2023-04-26T00:02:07.089Z,10.20
2023-04-26T00:04:36.054Z,11.20
2023-04-26T00:07:03.861Z,11.60
2023-04-26T00:09:31.621Z,10.77
2023-04-26T00:11:59.280Z,11.13
2023-04-26T00:14:26.872Z,11.65
2023-04-26T00:16:54.419Z,10.43
2023-04-26T00:19:22.064Z,8.95
2023-04-26T00:21:51.124Z,10.68
2023-04-26T00:24:18.749Z,10.30
2023-04-26T00:26:46.331Z,10.95
2023-04-26T00:29:13.864Z,10.55
2023-04-26T00:31:41.499Z,10.45
2023-04-26T00:34:09.205Z,12.88
2023-04-26T00:36:36.862Z,15.05
2023-04-26T00:39:05.851Z,15.35
2023-04-26T00:41:33.395Z,13.70
2023-04-26T00:44:00.920Z,13.65
2023-04-26T00:46:29.348Z,12.95
2023-04-26T00:48:57.208Z,11.10
2023-04-26T00:51:24.775Z,12.02
2023-04-26T00:53:52.361Z,10.25
2023-04-26T00:56:22.220Z,11.85
2023-04-26T00:58:50.005Z,10.82
2023-04-26T01:01:17.942Z,11.27
2023-04-26T01:03:47.111Z,11.30
2023-04-26T01:06:14.724Z,10.68
2023-04-26T01:08:42.589Z,10.40
2023-04-26T01:11:10.226Z,10.30
2023-04-26T01:13:39.582Z,11.90
2023-04-26T01:16:09.261Z,11.27
2023-04-26T01:18:36.932Z,11.88
2023-04-26T01:21:05.437Z,10.85
2023-04-26T01:23:34.392Z,11.55
2023-04-26T01:26:01.972Z,11.52
2023-04-26T01:28:29.503Z,10.23
2023-04-26T01:30:57.034Z,11.75
2023-04-26T01:33:24.933Z,11.63
2023-04-26T01:35:52.562Z,10.57
2023-04-26T01:38:20.198Z,10.13
2023-04-26T01:40:49.122Z,11.13
2023-04-26T01:43:18.619Z,13.10
2023-04-26T01:45:47.849Z,11.52
2023-04-26T01:48:15.401Z,12.05
2023-04-26T01:50:42.994Z,10.90
2023-04-26T01:53:10.516Z,10.70
2023-04-26T01:55:38.154Z,11.77
2023-04-26T01:58:07.122Z,12.45
2023-04-26T02:00:34.705Z,11.98
2023-04-26T02:03:02.335Z,11.07
2023-04-26T02:05:29.902Z,12.18
2023-04-26T02:07:57.565Z,13.07
2023-04-26T02:10:25.081Z,12.60
2023-04-26T02:12:52.616Z,12.07
2023-04-26T02:15:21.817Z,11.93
2023-04-26T02:17:49.772Z,11.52
2023-04-26T02:20:17.657Z,11.73
2023-04-26T02:22:45.304Z,11.35
2023-04-26T02:25:12.824Z,10.82
2023-04-26T02:27:41.053Z,11.45
2023-04-26T02:30:09.571Z,11.60
2023-04-26T02:32:38.489Z,11.40
2023-04-26T02:35:06.858Z,11.05
2023-04-26T02:37:34.658Z,11.23
2023-04-26T02:40:02.282Z,11.10
2023-04-26T02:42:29.856Z,10.30
2023-04-26T02:44:57.594Z,10.32
2023-04-26T02:47:25.165Z,11.90
2023-04-26T02:49:54.166Z,11.50
2023-04-26T02:52:21.696Z,11.07
2023-04-26T02:54:49.199Z,9.93
2023-04-26T02:57:16.744Z,11.35
2023-04-26T02:59:44.638Z,10.95
2023-04-26T03:02:12.293Z,10.90
2023-04-26T03:04:39.975Z,11.05
2023-04-26T03:07:08.896Z,9.45
2023-04-26T03:09:38.177Z,10.48
2023-04-26T03:12:07.338Z,10.55
2023-04-26T03:14:34.960Z,11.32
2023-04-26T03:17:03.313Z,11.88
2023-04-26T03:19:30.895Z,12.23
2023-04-26T03:21:58.426Z,11.50
2023-04-26T03:24:27.408Z,11.85
2023-04-26T03:26:55.312Z,11.85
2023-04-26T03:29:22.830Z,11.65
2023-04-26T03:31:50.419Z,12.88
2023-04-26T03:34:17.978Z,11.45
2023-04-26T03:36:45.561Z,11.43
2023-04-26T03:39:13.086Z,12.35
2023-04-26T03:41:42.059Z,12.50
2023-04-26T03:44:09.682Z,12.75
2023-04-26T03:46:37.224Z,11.25
2023-04-26T03:49:04.815Z,11.93
2023-04-26T03:51:32.371Z,12.05
2023-04-26T03:54:00.195Z,11.10
2023-04-26T03:56:27.725Z,11.73
2023-04-26T03:58:56.859Z,11.35
2023-04-26T04:01:24.442Z,11.52
2023-04-26T04:03:52.065Z,11.00
2023-04-26T04:06:19.761Z,10.43
2023-04-26T04:08:47.324Z,11.75
2023-04-26T04:11:16.741Z,11.65
2023-04-26T04:13:44.428Z,10.63
2023-04-26T04:16:13.407Z,11.60
2023-04-26T04:18:41.025Z,10.73
2023-04-26T04:21:08.586Z,10.85
2023-04-26T04:23:36.123Z,11.40
2023-04-26T04:26:03.684Z,11.98
2023-04-26T04:28:31.924Z,11.10
2023-04-26T04:31:00.991Z,10.82
2023-04-26T04:33:30.128Z,11.95
2023-04-26T04:35:58.618Z,13.10
2023-04-26T04:38:26.250Z,14.00
2023-04-26T04:40:53.846Z,12.20
2023-04-26T04:43:21.453Z,12.07
2023-04-26T04:45:49.290Z,12.63
2023-04-26T04:48:17.290Z,11.77
2023-04-26T04:50:46.323Z,11.55
2023-04-26T04:53:13.911Z,11.60
2023-04-26T04:55:46.803Z,12.82
2023-04-26T04:58:14.884Z,13.65
2023-04-26T05:00:43.493Z,12.13
2023-04-26T05:03:12.574Z,12.50
2023-04-26T05:05:50.174Z,13.18
2023-04-26T05:08:17.780Z,13.68
2023-04-26T05:10:46.552Z,14.23
2023-04-26T05:13:14.226Z,14.40
2023-04-26T05:15:41.889Z,13.85
2023-04-26T05:18:10.175Z,12.68
2023-04-26T05:20:37.854Z,13.32
2023-04-26T05:23:07.228Z,13.68
2023-04-26T05:25:38.254Z,11.95
2023-04-26T05:28:08.110Z,13.88
2023-04-26T05:30:36.108Z,12.45
2023-04-26T05:33:04.118Z,14.63
2023-04-26T05:35:31.833Z,14.52
2023-04-26T05:37:59.417Z,13.73
2023-04-26T05:40:28.414Z,13.73
2023-04-26T05:43:01.942Z,13.52
2023-04-26T05:45:29.809Z,12.90
2023-04-26T05:47:57.487Z,12.13
2023-04-26T05:50:25.164Z,13.68
2023-04-26T05:52:52.700Z,13.02
2023-04-26T05:55:21.494Z,12.65
2023-04-26T05:57:50.805Z,13.68
2023-04-26T06:00:20.830Z,12.93
2023-04-26T06:02:48.647Z,14.15
2023-04-26T06:05:16.648Z,14.75
2023-04-26T06:07:44.687Z,15.52
2023-04-26T06:10:13.311Z,14.50
2023-04-26T06:12:41.385Z,14.68
2023-04-26T06:15:11.701Z,13.43
2023-04-26T06:17:39.396Z,14.85
2023-04-26T06:20:09.401Z,13.93
2023-04-26T06:22:37.965Z,13.40
2023-04-26T06:25:06.766Z,14.35
2023-04-26T06:27:34.352Z,14.35
2023-04-26T06:30:01.956Z,14.13
2023-04-26T06:32:30.892Z,14.23
2023-04-26T06:34:58.548Z,14.10
2023-04-26T06:37:26.146Z,13.82
2023-04-26T06:39:53.993Z,12.55
2023-04-26T06:42:22.468Z,13.27
2023-04-26T06:44:50.352Z,12.88
2023-04-26T06:47:18.006Z,12.98
2023-04-26T06:49:47.070Z,12.07
2023-04-26T06:52:14.690Z,11.68
2023-04-26T06:54:53.554Z,12.60
2023-04-26T06:57:24.105Z,12.48
2023-04-26T06:59:51.798Z,11.35
2023-04-26T07:02:19.840Z,11.27
2023-04-26T07:04:49.118Z,10.88
2023-04-26T07:07:17.129Z,10.48
2023-04-26T07:09:45.180Z,9.43
2023-04-26T07:12:12.879Z,10.00
2023-04-26T07:14:41.427Z,9.82
2023-04-26T07:17:08.988Z,9.75
2023-04-26T07:19:36.551Z,8.27
2023-04-26T07:22:05.562Z,8.05
2023-04-26T07:24:33.177Z,8.10
2023-04-26T07:27:01.169Z,8.48
2023-04-26T07:29:28.890Z,8.55
2023-04-26T07:31:57.036Z,8.35
2023-04-26T07:34:24.580Z,8.13
2023-04-26T07:36:52.140Z,7.90
2023-04-26T07:39:21.092Z,7.85
2023-04-26T07:41:48.706Z,8.07
2023-04-26T07:44:16.446Z,7.32
2023-04-26T07:46:44.032Z,7.15
2023-04-26T07:49:11.651Z,7.93
2023-04-26T07:51:39.257Z,7.43
2023-04-26T07:54:06.941Z,8.10
2023-04-26T07:56:36.051Z,7.50
2023-04-26T07:59:05.049Z,6.28
2023-04-26T08:01:33.101Z,5.95
2023-04-26T08:04:03.169Z,6.57
2023-04-26T08:06:37.381Z,5.45
2023-04-26T08:09:06.382Z,5.43
2023-04-26T08:11:34.097Z,4.68
2023-04-26T08:14:03.411Z,4.13
2023-04-26T08:16:31.118Z,4.68
2023-04-26T08:19:03.022Z,4.60
2023-04-26T08:21:31.109Z,3.47
2023-04-26T08:23:59.131Z,3.45
2023-04-26T08:26:27.016Z,4.55
2023-04-26T08:28:54.838Z,4.22
2023-04-26T08:31:24.012Z,4.10
2023-04-26T08:33:54.624Z,3.72
2023-04-26T08:36:22.392Z,3.28
2023-04-26T08:38:50.074Z,3.13
2023-04-26T08:41:23.334Z,3.05
2023-04-26T08:43:51.416Z,3.60
2023-04-26T08:46:20.866Z,3.00
2023-04-26T08:48:56.176Z,2.97
2023-04-26T08:51:24.613Z,4.10
2023-04-26T08:53:54.740Z,4.13
2023-04-26T08:56:23.965Z,3.50
2023-04-26T08:58:52.151Z,7.03
2023-04-26T09:01:22.354Z,5.72
2023-04-26T09:03:51.773Z,5.90
2023-04-26T09:06:20.715Z,3.47
2023-04-26T09:08:49.078Z,3.38
2023-04-26T09:11:16.732Z,2.42
2023-04-26T09:13:44.400Z,2.90
2023-04-26T09:16:12.626Z,4.15
2023-04-26T09:18:50.642Z,2.97
2023-04-26T09:21:20.339Z,3.70
2023-04-26T09:24:01.744Z,2.88
2023-04-26T09:26:29.452Z,2.85
2023-04-26T09:29:13.539Z,2.85
2023-04-26T09:31:43.252Z,2.97
2023-04-26T09:34:12.060Z,3.28
2023-04-26T09:36:56.854Z,2.50
2023-04-26T09:39:35.336Z,3.33
2023-04-26T09:42:04.230Z,2.53
2023-04-26T09:44:32.311Z,3.17
2023-04-26T09:47:02.070Z,3.00
2023-04-26T09:49:30.047Z,2.70
2023-04-26T09:52:06.769Z,2.60
2023-04-26T09:54:46.210Z,2.53
2023-04-26T09:57:16.280Z,2.45
2023-04-26T09:59:45.397Z,2.65
2023-04-26T10:02:22.033Z,3.08
2023-04-26T10:04:52.556Z,2.70
2023-04-26T10:07:24.681Z,2.35
2023-04-26T10:09:52.333Z,2.60
2023-04-26T10:12:21.137Z,3.15
2023-04-26T10:14:49.557Z,2.92
2023-04-26T10:17:19.672Z,2.30
2023-04-26T10:19:51.292Z,3.00
2023-04-26T10:22:25.961Z,2.70
2023-04-26T10:24:55.874Z,2.60
2023-04-26T10:27:48.950Z,2.60
2023-04-26T10:33:13.970Z,2.25
2023-04-26T10:36:04.665Z,2.47
2023-04-26T10:38:34.070Z,2.15
2023-04-26T10:41:34.187Z,2.03
2023-04-26T10:44:39.327Z,1.85
2023-04-26T10:47:09.988Z,1.52
2023-04-26T10:49:47.046Z,1.98
2023-04-26T10:52:33.667Z,1.90
2023-04-26T10:55:06.523Z,2.20
2023-04-26T10:57:52.109Z,1.90
2023-04-26T11:00:30.894Z,2.05
2023-04-26T11:03:12.365Z,1.90
2023-04-26T11:05:54.128Z,2.10
2023-04-26T11:08:26.384Z,1.40
2023-04-26T11:11:06.925Z,2.20
2023-04-26T11:13:36.602Z,2.17
2023-04-26T11:16:06.196Z,1.98
2023-04-26T11:18:34.828Z,1.40
2023-04-26T11:21:02.613Z,2.00
2023-04-26T11:23:31.568Z,1.50
2023-04-26T11:26:02.875Z,1.95
2023-04-26T11:28:33.937Z,1.63
2023-04-26T11:31:03.132Z,1.55
2023-04-26T11:33:31.365Z,1.60
2023-04-26T11:35:59.637Z,1.88
2023-04-26T11:38:28.567Z,2.30
2023-04-26T11:40:57.982Z,2.35
2023-04-26T11:43:36.550Z,1.75
2023-04-26T11:46:04.755Z,1.60
2023-04-26T11:48:33.639Z,3.03
2023-04-26T11:51:03.843Z,1.95
2023-04-26T11:53:37.473Z,1.40
2023-04-26T11:56:06.032Z,1.70
2023-04-26T11:58:34.919Z,1.55
2023-04-26T12:01:03.134Z,1.63
2023-04-26T12:03:32.308Z,1.40
2023-04-26T12:06:00.138Z,1.70
2023-04-26T12:08:28.371Z,1.85
2023-04-26T12:10:59.961Z,2.22
2023-04-26T12:13:27.875Z,1.73
2023-04-26T12:15:56.956Z,1.55
2023-04-26T12:18:31.414Z,1.45
2023-04-26T12:21:00.242Z,1.52
2023-04-26T12:23:27.989Z,1.52
2023-04-26T12:25:57.078Z,1.77
2023-04-26T12:28:25.751Z,1.48
2023-04-26T12:30:53.335Z,1.80
2023-04-26T12:33:23.217Z,1.70
2023-04-26T12:35:51.577Z,1.83
2023-04-26T12:38:19.848Z,2.05
2023-04-26T12:40:47.659Z,1.67
2023-04-26T12:43:15.917Z,1.67
2023-04-26T12:45:43.575Z,1.70
2023-04-26T12:48:11.929Z,1.70
2023-04-26T12:50:41.363Z,2.08
2023-04-26T12:53:10.931Z,1.90
2023-04-26T12:55:38.699Z,1.75
2023-04-26T12:58:06.313Z,1.98
2023-04-26T13:00:34.017Z,1.88
2023-04-26T13:03:02.533Z,11.40
2023-04-26T13:05:30.573Z,2.40
2023-04-26T13:08:00.418Z,2.15
2023-04-26T13:10:28.001Z,1.60
2023-04-26T13:12:55.867Z,1.50
2023-04-26T13:15:24.723Z,1.98
2023-04-26T13:17:52.312Z,2.40
2023-04-26T13:20:19.999Z,1.85
2023-04-26T13:22:47.613Z,1.50
2023-04-26T13:25:19.053Z,2.58
2023-04-26T13:27:46.743Z,2.05
2023-04-26T13:30:15.397Z,1.88
2023-04-26T13:32:43.182Z,2.28
2023-04-26T13:35:12.014Z,4.22
2023-04-26T13:37:39.690Z,3.88
2023-04-26T13:40:11.324Z,2.00
2023-04-26T13:42:40.865Z,1.85
2023-04-26T13:45:10.344Z,1.85
2023-04-26T13:47:38.738Z,2.20
2023-04-26T13:50:07.433Z,1.50
2023-04-26T13:52:35.357Z,1.73
2023-04-26T13:55:03.061Z,1.98
2023-04-26T13:57:30.750Z,2.42
2023-04-26T13:59:59.641Z,2.10
2023-04-26T14:02:27.406Z,1.83
2023-04-26T14:04:55.965Z,1.77
2023-04-26T14:07:23.677Z,1.65
2023-04-26T14:09:51.557Z,1.77
2023-04-26T14:12:19.103Z,1.58
2023-04-26T14:14:47.963Z,1.70
2023-04-26T14:17:16.922Z,2.17
2023-04-26T14:19:44.492Z,1.48
2023-04-26T14:22:13.059Z,2.00
2023-04-26T14:24:40.678Z,2.13
2023-04-26T14:27:08.208Z,1.75
2023-04-26T14:29:35.859Z,1.67
2023-04-26T14:32:03.428Z,1.90
2023-04-26T14:34:32.528Z,1.80
2023-04-26T14:37:01.699Z,2.00
2023-04-26T14:39:29.378Z,1.83
2023-04-26T14:41:57.872Z,2.03
2023-04-26T14:44:25.828Z,1.95
2023-04-26T14:46:53.455Z,2.25
2023-04-26T14:49:21.112Z,3.22
2023-04-26T14:51:52.532Z,5.20
2023-04-26T14:54:21.053Z,2.25
2023-04-26T14:56:48.920Z,2.28
2023-04-26T14:59:16.617Z,1.92
2023-04-26T15:01:44.339Z,2.00
2023-04-26T15:04:12.197Z,2.40
2023-04-26T15:06:40.048Z,1.60
2023-04-26T15:09:09.173Z,1.58
2023-04-26T15:11:36.849Z,2.05
2023-04-26T15:14:04.461Z,1.88
2023-04-26T15:16:32.007Z,1.95
2023-04-26T15:18:59.618Z,1.50
2023-04-26T15:21:28.957Z,2.13
2023-04-26T15:23:57.237Z,2.20
2023-04-26T15:26:26.196Z,2.00
2023-04-26T15:28:53.785Z,1.90
2023-04-26T15:31:21.919Z,1.83
2023-04-26T15:33:49.515Z,1.75
2023-04-26T15:36:19.763Z,2.35
2023-04-26T15:38:48.717Z,1.80
2023-04-26T15:41:16.390Z,1.70
2023-04-26T15:43:45.782Z,2.00
2023-04-26T15:46:14.865Z,2.42
2023-04-26T15:48:42.470Z,2.33
2023-04-26T15:51:10.017Z,1.45
2023-04-26T15:53:41.341Z,1.60
2023-04-26T15:56:15.555Z,1.67
2023-04-26T15:58:45.607Z,2.10
2023-04-26T16:01:13.352Z,1.77
2023-04-26T16:03:42.658Z,1.60
2023-04-26T16:06:12.389Z,2.30
2023-04-26T16:08:40.862Z,2.08
2023-04-26T16:11:08.594Z,2.30
2023-04-26T16:13:36.155Z,2.72
2023-04-26T16:16:07.800Z,2.53
2023-04-26T16:18:35.689Z,1.75
2023-04-26T16:21:07.316Z,2.10
2023-04-26T16:23:34.880Z,2.53
2023-04-26T16:26:02.662Z,2.20
2023-04-26T16:28:30.391Z,2.05
2023-04-26T16:30:58.015Z,2.30
2023-04-26T16:33:27.184Z,2.03
2023-04-26T16:35:55.672Z,2.03
2023-04-26T16:38:23.599Z,1.98
2023-04-26T16:40:57.494Z,2.70
2023-04-26T16:43:25.751Z,1.63
2023-04-26T16:46:00.323Z,2.08
2023-04-26T16:48:31.391Z,2.47
2023-04-26T16:50:59.442Z,17.55
2023-04-26T16:53:27.070Z,3.00
2023-04-26T16:55:55.258Z,1.98
2023-04-26T16:58:22.852Z,1.73
2023-04-26T17:00:50.514Z,1.80
2023-04-26T17:03:19.127Z,1.88
2023-04-26T17:05:49.424Z,2.00
2023-04-26T17:08:18.243Z,1.92
2023-04-26T17:10:47.599Z,1.98
2023-04-26T17:13:15.340Z,2.17
2023-04-26T17:15:43.068Z,2.65
2023-04-26T17:18:11.005Z,2.05
2023-04-26T17:20:38.762Z,2.65
2023-04-26T17:23:08.600Z,2.15
2023-04-26T17:25:36.449Z,2.05
2023-04-26T17:28:04.291Z,2.05
2023-04-26T17:30:31.973Z,2.03
2023-04-26T17:32:59.599Z,1.98
2023-04-26T17:35:27.603Z,2.38
2023-04-26T17:37:55.211Z,1.92
2023-04-26T17:40:24.129Z,2.05
2023-04-26T17:42:52.016Z,2.13
2023-04-26T17:45:19.675Z,1.90
2023-04-26T17:47:47.521Z,2.35
2023-04-26T17:50:15.605Z,2.00
2023-04-26T17:52:43.165Z,2.10
2023-04-26T17:55:11.045Z,1.90
2023-04-26T17:57:39.936Z,1.83
2023-04-26T18:00:10.186Z,2.55
2023-04-26T18:02:38.345Z,2.30
2023-04-26T18:05:08.390Z,2.70
2023-04-26T18:07:35.987Z,2.53
2023-04-26T18:10:04.012Z,2.15
2023-04-26T18:12:32.046Z,2.15
2023-04-26T18:15:01.260Z,2.53
2023-04-26T18:17:28.886Z,2.65
2023-04-26T18:19:56.434Z,2.80
2023-04-26T18:22:24.016Z,2.70
2023-04-26T18:24:52.069Z,2.35
2023-04-26T18:27:19.646Z,2.65
2023-04-26T18:29:47.770Z,2.30
2023-04-26T18:32:16.775Z,2.35
2023-04-26T18:34:45.047Z,2.08
2023-04-26T18:37:12.670Z,2.45
2023-04-26T18:39:40.385Z,2.13
2023-04-26T18:42:08.096Z,5.65
2023-04-26T18:44:36.127Z,4.50
2023-04-26T18:47:04.029Z,3.78
2023-04-26T18:49:33.081Z,2.65
2023-04-26T18:52:01.678Z,2.45
2023-04-26T18:54:31.009Z,2.58
2023-04-26T18:56:59.740Z,2.10
2023-04-26T18:59:28.200Z,2.90
2023-04-26T19:01:55.795Z,2.42
2023-04-26T19:04:23.561Z,2.88
2023-04-26T19:06:52.758Z,2.55
2023-04-26T19:09:20.524Z,2.40
2023-04-26T19:11:48.119Z,2.20
2023-04-26T19:14:15.689Z,3.20
2023-04-26T19:16:43.935Z,2.67
2023-04-26T19:19:12.137Z,2.80
2023-04-26T19:21:39.630Z,2.53
2023-04-26T19:24:08.903Z,2.67
2023-04-26T19:26:37.934Z,3.17
2023-04-26T19:29:06.794Z,2.80
2023-04-26T19:31:34.969Z,4.78
2023-04-26T19:34:03.731Z,6.00
2023-04-26T19:36:31.529Z,4.07
2023-04-26T19:38:59.304Z,3.35
2023-04-26T19:41:28.373Z,3.20
2023-04-26T19:43:56.466Z,2.70
2023-04-26T19:46:24.040Z,6.45
2023-04-26T19:48:51.659Z,3.80
2023-04-26T19:51:19.590Z,3.25
2023-04-26T19:53:47.140Z,3.17
2023-04-26T19:56:14.674Z,3.72
2023-04-26T19:58:43.557Z,4.28
2023-04-26T20:01:11.169Z,4.40
2023-04-26T20:03:41.394Z,3.95
2023-04-26T20:06:10.419Z,4.10
2023-04-26T20:08:38.037Z,4.75
2023-04-26T20:11:05.658Z,5.10
2023-04-26T20:13:33.289Z,4.15
2023-04-26T20:16:02.462Z,4.82
2023-04-26T20:18:30.012Z,4.43
2023-04-26T20:20:57.533Z,3.67
2023-04-26T20:23:25.094Z,5.82
2023-04-26T20:25:52.897Z,5.80
2023-04-26T20:28:20.912Z,5.03
2023-04-26T20:30:48.486Z,4.10
2023-04-26T20:33:17.400Z,4.00
2023-04-26T20:35:44.997Z,4.38
2023-04-26T20:38:12.746Z,3.63
2023-04-26T20:40:40.291Z,3.35
2023-04-26T20:43:08.090Z,3.63
2023-04-26T20:45:35.710Z,4.25
2023-04-26T20:48:03.269Z,5.40
2023-04-26T20:50:32.198Z,4.75
2023-04-26T20:52:59.766Z,4.55
2023-04-26T20:55:27.334Z,4.70
2023-04-26T20:57:54.935Z,3.42
2023-04-26T21:00:22.828Z,4.47
2023-04-26T21:02:50.572Z,5.03
2023-04-26T21:05:18.181Z,5.47
2023-04-26T21:07:47.080Z,5.53
2023-04-26T21:10:14.624Z,4.55
2023-04-26T21:12:42.706Z,4.57
2023-04-26T21:15:11.087Z,4.25
2023-04-26T21:17:40.591Z,4.45
2023-04-26T21:20:08.912Z,4.22
2023-04-26T21:22:36.459Z,3.85
2023-04-26T21:25:06.201Z,3.35
2023-04-26T21:27:33.742Z,3.88
2023-04-26T21:30:01.260Z,4.03
2023-04-26T21:32:28.826Z,4.22
2023-04-26T21:34:56.830Z,4.28
2023-04-26T21:37:24.483Z,5.00
2023-04-26T21:39:52.083Z,5.15
2023-04-26T21:42:21.318Z,4.95
2023-04-26T21:44:48.840Z,4.55
2023-04-26T21:47:16.697Z,3.80
2023-04-26T21:49:44.304Z,3.88
2023-04-26T21:52:11.912Z,3.75
2023-04-26T21:54:39.729Z,3.08
2023-04-26T21:57:07.424Z,3.45
2023-04-26T21:59:36.509Z,3.65
2023-04-26T22:02:04.361Z,3.70
2023-04-26T22:04:32.002Z,3.40
2023-04-26T22:06:59.734Z,3.30
2023-04-26T22:09:27.305Z,3.72
2023-04-26T22:11:54.997Z,3.55
2023-04-26T22:14:22.610Z,4.60
2023-04-26T22:16:51.538Z,4.88
2023-04-26T22:19:19.169Z,3.80
2023-04-26T22:21:46.808Z,3.50
2023-04-26T22:24:14.574Z,3.50
2023-04-26T22:26:42.320Z,4.00
2023-04-26T22:29:10.154Z,3.60
2023-04-26T22:31:38.015Z,3.03
2023-04-26T22:34:07.195Z,3.70
2023-04-26T22:36:34.779Z,4.50
2023-04-26T22:39:02.324Z,4.47
2023-04-26T22:41:29.875Z,4.05
2023-04-26T22:43:57.419Z,3.85
2023-04-26T22:46:25.125Z,4.88
2023-04-26T22:48:52.777Z,4.80
2023-04-26T22:51:22.928Z,4.95
2023-04-26T22:53:50.548Z,4.65
2023-04-26T22:56:18.131Z,4.05
2023-04-26T22:58:45.865Z,4.30
2023-04-26T23:01:13.434Z,5.20
2023-04-26T23:03:41.407Z,4.38
2023-04-26T23:06:09.415Z,5.88
2023-04-26T23:08:38.310Z,4.63
2023-04-26T23:11:08.381Z,4.90
2023-04-26T23:13:39.350Z,4.30
2023-04-26T23:16:07.909Z,4.43
2023-04-26T23:18:35.430Z,4.07
2023-04-26T23:21:02.966Z,3.05
2023-04-26T23:23:30.489Z,3.20
2023-04-26T23:25:59.412Z,3.05
2023-04-26T23:28:26.988Z,3.58
2023-04-26T23:30:54.518Z,4.38
2023-04-26T23:33:22.751Z,4.93
2023-04-26T23:35:50.558Z,5.85
2023-04-26T23:38:18.044Z,5.28
2023-04-26T23:40:46.133Z,5.07
2023-04-26T23:43:14.990Z,3.92
2023-04-26T23:45:47.066Z,4.65
2023-04-26T23:48:15.076Z,3.65
2023-04-26T23:50:43.196Z,3.47
2023-04-26T23:53:11.350Z,3.47
2023-04-26T23:55:39.656Z,3.60
2023-04-26T23:58:07.440Z,3.40
